sensor_id;sensor_type;location;lat;lon;timestamp;temperature;humidity
20726;DHT22;10524;48.132;8.518;2023-01-13T00:00:11;7.20;99.90
20726;DHT22;10524;48.132;8.518;2023-01-13T00:02:37;7.30;99.90
20726;DHT22;10524;48.132;8.518;2023-01-13T00:05:02;7.30;99.90
20726;DHT22;10524;48.132;8.518;2023-01-13T00:07:28;7.20;99.90
20726;DHT22;10524;48.132;8.518;2023-01-13T00:09:54;7.10;99.90
20726;DHT22;10524;48.132;8.518;2023-01-13T00:12:19;7.10;99.90
20726;DHT22;10524;48.132;8.518;2023-01-13T00:14:45;7.20;99.90
20726;DHT22;10524;48.132;8.518;2023-01-13T00:17:11;7.30;99.90
20726;DHT22;10524;48.132;8.518;2023-01-13T00:19:37;7.30;99.90
20726;DHT22;10524;48.132;8.518;2023-01-13T00:22:02;7.30;99.90
20726;DHT22;10524;48.132;8.518;2023-01-13T00:24:28;7.30;99.90
20726;DHT22;10524;48.132;8.518;2023-01-13T00:26:53;7.30;99.90
20726;DHT22;10524;48.132;8.518;2023-01-13T00:29:19;7.30;99.90
20726;DHT22;10524;48.132;8.518;2023-01-13T00:31:45;7.30;99.90
20726;DHT22;10524;48.132;8.518;2023-01-13T00:34:10;7.30;99.90
20726;DHT22;10524;48.132;8.518;2023-01-13T00:36:36;7.30;99.90
20726;DHT22;10524;48.132;8.518;2023-01-13T00:39:02;7.30;99.90
20726;DHT22;10524;48.132;8.518;2023-01-13T00:41:27;7.40;99.90
20726;DHT22;10524;48.132;8.518;2023-01-13T00:44:13;7.40;99.90
20726;DHT22;10524;48.132;8.518;2023-01-13T00:46:38;7.40;99.90
20726;DHT22;10524;48.132;8.518;2023-01-13T00:49:04;7.40;99.90
20726;DHT22;10524;48.132;8.518;2023-01-13T00:51:30;7.30;99.90
20726;DHT22;10524;48.132;8.518;2023-01-13T00:53:56;7.40;99.90
20726;DHT22;10524;48.132;8.518;2023-01-13T00:56:23;7.40;99.90
20726;DHT22;10524;48.132;8.518;2023-01-13T00:58:49;7.40;99.90
20726;DHT22;10524;48.132;8.518;2023-01-13T01:01:18;7.40;99.90
20726;DHT22;10524;48.132;8.518;2023-01-13T01:03:48;7.30;99.90
20726;DHT22;10524;48.132;8.518;2023-01-13T01:06:16;7.20;99.90
20726;DHT22;10524;48.132;8.518;2023-01-13T01:08:43;7.30;99.90
20726;DHT22;10524;48.132;8.518;2023-01-13T01:11:15;7.40;99.90
20726;DHT22;10524;48.132;8.518;2023-01-13T01:13:42;7.40;99.90
20726;DHT22;10524;48.132;8.518;2023-01-13T01:16:11;7.40;99.90
20726;DHT22;10524;48.132;8.518;2023-01-13T01:18:39;7.40;99.90
20726;DHT22;10524;48.132;8.518;2023-01-13T01:21:06;7.50;99.90
20726;DHT22;10524;48.132;8.518;2023-01-13T01:23:32;7.40;99.90
20726;DHT22;10524;48.132;8.518;2023-01-13T01:26:11;7.50;99.90
20726;DHT22;10524;48.132;8.518;2023-01-13T01:28:37;7.60;99.90
20726;DHT22;10524;48.132;8.518;2023-01-13T01:31:09;7.70;99.90
20726;DHT22;10524;48.132;8.518;2023-01-13T01:33:36;7.60;99.90
20726;DHT22;10524;48.132;8.518;2023-01-13T01:36:02;7.50;99.90
20726;DHT22;10524;48.132;8.518;2023-01-13T01:38:28;7.50;99.90
20726;DHT22;10524;48.132;8.518;2023-01-13T01:40:54;7.50;99.90
20726;DHT22;10524;48.132;8.518;2023-01-13T01:43:21;7.40;99.90
20726;DHT22;10524;48.132;8.518;2023-01-13T01:46:10;7.40;99.90
20726;DHT22;10524;48.132;8.518;2023-01-13T01:48:40;7.40;99.90
20726;DHT22;10524;48.132;8.518;2023-01-13T01:51:10;7.50;99.90
20726;DHT22;10524;48.132;8.518;2023-01-13T01:53:38;7.50;99.90
20726;DHT22;10524;48.132;8.518;2023-01-13T01:56:04;7.50;99.90
20726;DHT22;10524;48.132;8.518;2023-01-13T01:58:40;7.40;99.90
20726;DHT22;10524;48.132;8.518;2023-01-13T02:01:11;7.50;99.90
20726;DHT22;10524;48.132;8.518;2023-01-13T02:03:38;7.40;99.90
20726;DHT22;10524;48.132;8.518;2023-01-13T02:06:07;7.50;99.90
20726;DHT22;10524;48.132;8.518;2023-01-13T02:08:33;7.50;99.90
20726;DHT22;10524;48.132;8.518;2023-01-13T02:10:59;7.60;99.90
20726;DHT22;10524;48.132;8.518;2023-01-13T02:13:25;7.60;99.90
20726;DHT22;10524;48.132;8.518;2023-01-13T02:21:12;7.20;99.90
20726;DHT22;10524;48.132;8.518;2023-01-13T02:23:53;7.20;99.90
20726;DHT22;10524;48.132;8.518;2023-01-13T02:29:55;6.90;99.90
20726;DHT22;10524;48.132;8.518;2023-01-13T02:37:41;6.40;99.90
20726;DHT22;10524;48.132;8.518;2023-01-13T02:40:11;6.30;99.90
20726;DHT22;10524;48.132;8.518;2023-01-13T02:43:13;6.30;99.90
20726;DHT22;10524;48.132;8.518;2023-01-13T02:49:05;6.30;99.90
20726;DHT22;10524;48.132;8.518;2023-01-13T02:51:32;6.10;99.90
20726;DHT22;10524;48.132;8.518;2023-01-13T02:54:02;6.10;99.90
20726;DHT22;10524;48.132;8.518;2023-01-13T02:56:29;6.10;99.90
20726;DHT22;10524;48.132;8.518;2023-01-13T02:58:57;6.10;99.90
20726;DHT22;10524;48.132;8.518;2023-01-13T03:01:24;6.20;99.90
20726;DHT22;10524;48.132;8.518;2023-01-13T03:03:49;6.20;99.90
20726;DHT22;10524;48.132;8.518;2023-01-13T03:08:52;6.30;99.90
20726;DHT22;10524;48.132;8.518;2023-01-13T03:11:19;6.40;99.90
20726;DHT22;10524;48.132;8.518;2023-01-13T03:13:55;6.40;99.90
20726;DHT22;10524;48.132;8.518;2023-01-13T03:26:59;6.50;99.90
20726;DHT22;10524;48.132;8.518;2023-01-13T03:29:45;6.70;99.90
20726;DHT22;10524;48.132;8.518;2023-01-13T03:32:33;6.80;99.90
20726;DHT22;10524;48.132;8.518;2023-01-13T03:35:25;6.80;99.90
20726;DHT22;10524;48.132;8.518;2023-01-13T03:38:03;6.90;99.90
20726;DHT22;10524;48.132;8.518;2023-01-13T03:40:37;6.80;99.90
20726;DHT22;10524;48.132;8.518;2023-01-13T03:43:09;6.70;99.90
20726;DHT22;10524;48.132;8.518;2023-01-13T03:45:58;6.70;99.90
20726;DHT22;10524;48.132;8.518;2023-01-13T03:48:25;6.80;99.90
20726;DHT22;10524;48.132;8.518;2023-01-13T03:50:55;6.90;99.90
20726;DHT22;10524;48.132;8.518;2023-01-13T03:53:31;7.00;99.90
20726;DHT22;10524;48.132;8.518;2023-01-13T03:56:04;7.00;99.90
20726;DHT22;10524;48.132;8.518;2023-01-13T03:58:36;7.10;99.90
20726;DHT22;10524;48.132;8.518;2023-01-13T04:01:15;7.20;99.90
20726;DHT22;10524;48.132;8.518;2023-01-13T04:03:56;7.20;99.90
20726;DHT22;10524;48.132;8.518;2023-01-13T04:06:35;7.20;99.90
20726;DHT22;10524;48.132;8.518;2023-01-13T04:11:56;7.20;99.90
20726;DHT22;10524;48.132;8.518;2023-01-13T04:14:25;7.20;99.90
20726;DHT22;10524;48.132;8.518;2023-01-13T04:16:52;7.20;99.90
20726;DHT22;10524;48.132;8.518;2023-01-13T04:19:18;7.20;99.90
20726;DHT22;10524;48.132;8.518;2023-01-13T04:21:44;7.20;99.90
20726;DHT22;10524;48.132;8.518;2023-01-13T04:24:09;7.10;99.90
20726;DHT22;10524;48.132;8.518;2023-01-13T04:26:35;7.10;99.90
20726;DHT22;10524;48.132;8.518;2023-01-13T04:29:00;7.10;99.90
20726;DHT22;10524;48.132;8.518;2023-01-13T04:31:26;7.20;99.90
20726;DHT22;10524;48.132;8.518;2023-01-13T04:33:52;7.20;99.90
20726;DHT22;10524;48.132;8.518;2023-01-13T04:36:17;7.20;99.90
20726;DHT22;10524;48.132;8.518;2023-01-13T04:38:44;7.20;99.90
20726;DHT22;10524;48.132;8.518;2023-01-13T04:41:09;7.10;99.90
20726;DHT22;10524;48.132;8.518;2023-01-13T04:43:35;7.10;99.90
20726;DHT22;10524;48.132;8.518;2023-01-13T04:46:01;7.10;99.90
20726;DHT22;10524;48.132;8.518;2023-01-13T04:48:26;7.10;99.90
20726;DHT22;10524;48.132;8.518;2023-01-13T04:50:52;7.10;99.90
20726;DHT22;10524;48.132;8.518;2023-01-13T04:53:17;7.10;99.90
20726;DHT22;10524;48.132;8.518;2023-01-13T04:55:43;7.00;99.90
20726;DHT22;10524;48.132;8.518;2023-01-13T04:58:10;6.90;99.90
20726;DHT22;10524;48.132;8.518;2023-01-13T05:00:36;6.90;99.90
20726;DHT22;10524;48.132;8.518;2023-01-13T05:03:02;6.90;99.90
20726;DHT22;10524;48.132;8.518;2023-01-13T05:05:29;6.90;99.90
20726;DHT22;10524;48.132;8.518;2023-01-13T05:07:54;6.90;99.90
20726;DHT22;10524;48.132;8.518;2023-01-13T05:10:20;6.90;99.90
20726;DHT22;10524;48.132;8.518;2023-01-13T05:12:46;6.90;99.90
20726;DHT22;10524;48.132;8.518;2023-01-13T05:15:30;6.80;99.90
20726;DHT22;10524;48.132;8.518;2023-01-13T05:18:15;6.70;99.90
20726;DHT22;10524;48.132;8.518;2023-01-13T05:20:42;6.80;99.90
20726;DHT22;10524;48.132;8.518;2023-01-13T05:23:07;6.80;99.90
20726;DHT22;10524;48.132;8.518;2023-01-13T05:25:52;6.80;99.90
20726;DHT22;10524;48.132;8.518;2023-01-13T05:28:17;6.80;99.90
20726;DHT22;10524;48.132;8.518;2023-01-13T05:30:45;6.90;99.90
20726;DHT22;10524;48.132;8.518;2023-01-13T05:33:16;6.90;99.90
20726;DHT22;10524;48.132;8.518;2023-01-13T05:35:44;7.00;99.90
20726;DHT22;10524;48.132;8.518;2023-01-13T05:38:11;6.90;99.90
20726;DHT22;10524;48.132;8.518;2023-01-13T05:40:38;7.00;99.90
20726;DHT22;10524;48.132;8.518;2023-01-13T05:43:23;7.10;99.90
20726;DHT22;10524;48.132;8.518;2023-01-13T05:46:00;7.10;99.90
20726;DHT22;10524;48.132;8.518;2023-01-13T05:48:31;7.20;99.90
20726;DHT22;10524;48.132;8.518;2023-01-13T05:50:57;7.10;99.90
20726;DHT22;10524;48.132;8.518;2023-01-13T05:53:23;7.20;99.90
20726;DHT22;10524;48.132;8.518;2023-01-13T05:55:50;7.20;99.90
20726;DHT22;10524;48.132;8.518;2023-01-13T05:58:17;7.10;99.90
20726;DHT22;10524;48.132;8.518;2023-01-13T06:00:44;7.10;99.90
20726;DHT22;10524;48.132;8.518;2023-01-13T06:03:10;7.20;99.90
20726;DHT22;10524;48.132;8.518;2023-01-13T06:05:36;7.30;99.90
20726;DHT22;10524;48.132;8.518;2023-01-13T06:08:03;7.30;99.90
20726;DHT22;10524;48.132;8.518;2023-01-13T06:10:29;7.30;99.90
20726;DHT22;10524;48.132;8.518;2023-01-13T06:12:55;7.30;99.90
20726;DHT22;10524;48.132;8.518;2023-01-13T06:15:21;7.30;99.90
20726;DHT22;10524;48.132;8.518;2023-01-13T06:17:47;7.30;99.90
20726;DHT22;10524;48.132;8.518;2023-01-13T06:20:15;7.20;99.90
20726;DHT22;10524;48.132;8.518;2023-01-13T06:22:43;7.20;99.90
20726;DHT22;10524;48.132;8.518;2023-01-13T06:25:37;7.10;99.90
20726;DHT22;10524;48.132;8.518;2023-01-13T06:28:04;7.10;99.90
20726;DHT22;10524;48.132;8.518;2023-01-13T06:30:34;7.10;99.90
20726;DHT22;10524;48.132;8.518;2023-01-13T06:33:04;7.10;99.90
20726;DHT22;10524;48.132;8.518;2023-01-13T06:35:34;7.10;99.90
20726;DHT22;10524;48.132;8.518;2023-01-13T06:38:03;7.10;99.90
20726;DHT22;10524;48.132;8.518;2023-01-13T06:40:29;7.10;99.90
20726;DHT22;10524;48.132;8.518;2023-01-13T06:42:55;7.10;99.90
20726;DHT22;10524;48.132;8.518;2023-01-13T06:45:51;6.90;99.90
20726;DHT22;10524;48.132;8.518;2023-01-13T06:48:20;6.90;99.90
20726;DHT22;10524;48.132;8.518;2023-01-13T06:50:46;6.90;99.90
20726;DHT22;10524;48.132;8.518;2023-01-13T06:53:12;6.90;99.90
20726;DHT22;10524;48.132;8.518;2023-01-13T06:55:37;6.90;99.90
20726;DHT22;10524;48.132;8.518;2023-01-13T06:58:03;7.00;99.90
20726;DHT22;10524;48.132;8.518;2023-01-13T07:00:29;7.00;99.90
20726;DHT22;10524;48.132;8.518;2023-01-13T07:03:10;7.00;99.90
20726;DHT22;10524;48.132;8.518;2023-01-13T07:05:37;7.00;99.90
20726;DHT22;10524;48.132;8.518;2023-01-13T07:08:03;7.00;99.90
20726;DHT22;10524;48.132;8.518;2023-01-13T07:10:29;6.80;99.90
20726;DHT22;10524;48.132;8.518;2023-01-13T07:12:55;6.80;99.90
20726;DHT22;10524;48.132;8.518;2023-01-13T07:15:39;6.80;99.90
20726;DHT22;10524;48.132;8.518;2023-01-13T07:18:05;6.80;99.90
20726;DHT22;10524;48.132;8.518;2023-01-13T07:20:30;6.90;99.90
20726;DHT22;10524;48.132;8.518;2023-01-13T07:22:57;6.90;99.90
20726;DHT22;10524;48.132;8.518;2023-01-13T07:25:22;6.90;99.90
20726;DHT22;10524;48.132;8.518;2023-01-13T07:27:48;6.90;99.90
20726;DHT22;10524;48.132;8.518;2023-01-13T07:30:14;6.90;99.90
20726;DHT22;10524;48.132;8.518;2023-01-13T07:32:39;7.00;99.90
20726;DHT22;10524;48.132;8.518;2023-01-13T07:35:05;7.10;99.90
20726;DHT22;10524;48.132;8.518;2023-01-13T07:37:33;7.10;99.90
20726;DHT22;10524;48.132;8.518;2023-01-13T07:39:59;7.20;99.90
20726;DHT22;10524;48.132;8.518;2023-01-13T07:42:25;7.30;99.90
20726;DHT22;10524;48.132;8.518;2023-01-13T07:45:09;7.30;99.90
20726;DHT22;10524;48.132;8.518;2023-01-13T07:47:35;7.30;99.90
20726;DHT22;10524;48.132;8.518;2023-01-13T07:50:01;7.30;99.90
20726;DHT22;10524;48.132;8.518;2023-01-13T07:52:26;7.30;99.90
20726;DHT22;10524;48.132;8.518;2023-01-13T07:54:52;7.30;99.90
20726;DHT22;10524;48.132;8.518;2023-01-13T07:57:17;7.30;99.90
20726;DHT22;10524;48.132;8.518;2023-01-13T07:59:43;7.30;99.90
20726;DHT22;10524;48.132;8.518;2023-01-13T08:02:12;7.20;99.90
20726;DHT22;10524;48.132;8.518;2023-01-13T08:04:38;7.10;99.90
20726;DHT22;10524;48.132;8.518;2023-01-13T08:07:04;7.00;99.90
20726;DHT22;10524;48.132;8.518;2023-01-13T08:09:30;7.00;99.90
20726;DHT22;10524;48.132;8.518;2023-01-13T08:11:56;6.90;99.90
20726;DHT22;10524;48.132;8.518;2023-01-13T08:14:40;6.90;99.90
20726;DHT22;10524;48.132;8.518;2023-01-13T08:17:09;6.60;99.90
20726;DHT22;10524;48.132;8.518;2023-01-13T08:19:35;6.40;99.90
20726;DHT22;10524;48.132;8.518;2023-01-13T08:22:00;6.30;99.90
20726;DHT22;10524;48.132;8.518;2023-01-13T08:24:26;6.20;99.90
20726;DHT22;10524;48.132;8.518;2023-01-13T08:26:52;6.10;99.90
20726;DHT22;10524;48.132;8.518;2023-01-13T08:29:18;6.10;99.90
20726;DHT22;10524;48.132;8.518;2023-01-13T08:31:43;6.10;99.90
20726;DHT22;10524;48.132;8.518;2023-01-13T08:34:09;6.10;99.90
20726;DHT22;10524;48.132;8.518;2023-01-13T08:36:35;6.00;99.90
20726;DHT22;10524;48.132;8.518;2023-01-13T08:39:00;6.00;99.90
20726;DHT22;10524;48.132;8.518;2023-01-13T08:41:26;6.00;99.90
20726;DHT22;10524;48.132;8.518;2023-01-13T08:44:10;6.00;99.90
20726;DHT22;10524;48.132;8.518;2023-01-13T08:46:36;6.00;99.90
20726;DHT22;10524;48.132;8.518;2023-01-13T08:49:02;5.90;99.90
20726;DHT22;10524;48.132;8.518;2023-01-13T08:51:27;6.00;99.90
20726;DHT22;10524;48.132;8.518;2023-01-13T08:53:53;6.10;99.90
20726;DHT22;10524;48.132;8.518;2023-01-13T08:56:18;6.20;99.90
20726;DHT22;10524;48.132;8.518;2023-01-13T08:58:44;6.20;99.90
20726;DHT22;10524;48.132;8.518;2023-01-13T09:01:20;6.30;99.90
20726;DHT22;10524;48.132;8.518;2023-01-13T09:03:47;6.40;99.90
20726;DHT22;10524;48.132;8.518;2023-01-13T09:06:12;6.50;99.90
20726;DHT22;10524;48.132;8.518;2023-01-13T09:08:38;6.60;99.90
20726;DHT22;10524;48.132;8.518;2023-01-13T09:11:04;6.50;99.90
20726;DHT22;10524;48.132;8.518;2023-01-13T09:13:49;6.50;99.90
20726;DHT22;10524;48.132;8.518;2023-01-13T09:16:15;6.60;99.90
20726;DHT22;10524;48.132;8.518;2023-01-13T09:18:40;6.60;99.90
20726;DHT22;10524;48.132;8.518;2023-01-13T09:21:09;6.60;99.90
20726;DHT22;10524;48.132;8.518;2023-01-13T09:23:35;6.60;99.90
20726;DHT22;10524;48.132;8.518;2023-01-13T09:26:00;6.70;99.90
20726;DHT22;10524;48.132;8.518;2023-01-13T09:28:26;6.60;99.90
20726;DHT22;10524;48.132;8.518;2023-01-13T09:30:51;6.70;99.90
20726;DHT22;10524;48.132;8.518;2023-01-13T09:33:17;6.70;99.90
20726;DHT22;10524;48.132;8.518;2023-01-13T09:36:01;6.70;99.90
20726;DHT22;10524;48.132;8.518;2023-01-13T09:38:27;6.70;99.90
20726;DHT22;10524;48.132;8.518;2023-01-13T09:40:53;6.80;99.90
20726;DHT22;10524;48.132;8.518;2023-01-13T09:43:27;6.80;99.90
20726;DHT22;10524;48.132;8.518;2023-01-13T09:46:17;6.90;99.90
20726;DHT22;10524;48.132;8.518;2023-01-13T09:49:03;7.00;99.90
20726;DHT22;10524;48.132;8.518;2023-01-13T09:51:34;7.10;99.90
20726;DHT22;10524;48.132;8.518;2023-01-13T09:54:12;7.20;99.90
20726;DHT22;10524;48.132;8.518;2023-01-13T09:56:41;7.20;99.90
20726;DHT22;10524;48.132;8.518;2023-01-13T09:59:10;7.10;99.90
20726;DHT22;10524;48.132;8.518;2023-01-13T10:04:17;7.20;99.90
20726;DHT22;10524;48.132;8.518;2023-01-13T10:06:47;7.10;99.90
20726;DHT22;10524;48.132;8.518;2023-01-13T10:09:21;7.10;99.90
20726;DHT22;10524;48.132;8.518;2023-01-13T10:11:50;7.10;99.90
20726;DHT22;10524;48.132;8.518;2023-01-13T10:14:44;7.20;99.90
20726;DHT22;10524;48.132;8.518;2023-01-13T10:17:32;7.20;99.90
20726;DHT22;10524;48.132;8.518;2023-01-13T10:28:30;8.20;99.90
20726;DHT22;10524;48.132;8.518;2023-01-13T10:30:56;8.40;99.90
20726;DHT22;10524;48.132;8.518;2023-01-13T10:33:25;8.00;99.90
20726;DHT22;10524;48.132;8.518;2023-01-13T10:40:49;9.00;99.90
20726;DHT22;10524;48.132;8.518;2023-01-13T10:43:15;9.80;99.90
20726;DHT22;10524;48.132;8.518;2023-01-13T10:45:49;12.00;99.90
20726;DHT22;10524;48.132;8.518;2023-01-13T10:48:15;11.20;99.90
20726;DHT22;10524;48.132;8.518;2023-01-13T10:50:41;10.70;99.90
20726;DHT22;10524;48.132;8.518;2023-01-13T10:55:42;11.40;99.90
20726;DHT22;10524;48.132;8.518;2023-01-13T11:00:38;11.20;99.90
20726;DHT22;10524;48.132;8.518;2023-01-13T11:03:19;10.70;99.90
20726;DHT22;10524;48.132;8.518;2023-01-13T11:05:54;10.00;99.90
20726;DHT22;10524;48.132;8.518;2023-01-13T11:08:41;9.60;99.90
20726;DHT22;10524;48.132;8.518;2023-01-13T11:11:44;9.30;99.90
20726;DHT22;10524;48.132;8.518;2023-01-13T11:14:17;10.40;99.90
20726;DHT22;10524;48.132;8.518;2023-01-13T11:19:37;10.10;99.90
20726;DHT22;10524;48.132;8.518;2023-01-13T11:22:16;11.20;99.90
20726;DHT22;10524;48.132;8.518;2023-01-13T11:24:54;11.80;99.90
20726;DHT22;10524;48.132;8.518;2023-01-13T11:35:17;12.00;99.90
20726;DHT22;10524;48.132;8.518;2023-01-13T11:37:48;14.70;99.90
20726;DHT22;10524;48.132;8.518;2023-01-13T11:40:36;14.30;99.90
20726;DHT22;10524;48.132;8.518;2023-01-13T11:46:08;11.30;99.90
20726;DHT22;10524;48.132;8.518;2023-01-13T11:48:38;10.70;99.90
20726;DHT22;10524;48.132;8.518;2023-01-13T11:51:14;10.20;99.90
20726;DHT22;10524;48.132;8.518;2023-01-13T12:08:00;4.40;99.90
20726;DHT22;10524;48.132;8.518;2023-01-13T12:13:24;4.30;99.90
20726;DHT22;10524;48.132;8.518;2023-01-13T12:21:52;4.30;99.90
20726;DHT22;10524;48.132;8.518;2023-01-13T12:24:42;4.40;99.90
20726;DHT22;10524;48.132;8.518;2023-01-13T12:27:17;6.30;99.90
20726;DHT22;10524;48.132;8.518;2023-01-13T12:29:45;8.60;99.90
20726;DHT22;10524;48.132;8.518;2023-01-13T12:32:16;9.70;99.90
20726;DHT22;10524;48.132;8.518;2023-01-13T12:37:44;10.70;99.90
20726;DHT22;10524;48.132;8.518;2023-01-13T12:42:49;8.00;99.90
20726;DHT22;10524;48.132;8.518;2023-01-13T12:45:35;7.70;99.90
20726;DHT22;10524;48.132;8.518;2023-01-13T12:48:01;7.40;99.90
20726;DHT22;10524;48.132;8.518;2023-01-13T12:52:58;6.70;99.90
20726;DHT22;10524;48.132;8.518;2023-01-13T12:55:27;8.00;99.90
20726;DHT22;10524;48.132;8.518;2023-01-13T13:00:54;8.20;99.90
20726;DHT22;10524;48.132;8.518;2023-01-13T13:03:30;7.40;99.90
20726;DHT22;10524;48.132;8.518;2023-01-13T13:06:05;7.10;99.90
20726;DHT22;10524;48.132;8.518;2023-01-13T13:08:40;6.70;99.90
20726;DHT22;10524;48.132;8.518;2023-01-13T13:13:57;6.40;99.90
20726;DHT22;10524;48.132;8.518;2023-01-13T13:24:39;6.10;99.90
20726;DHT22;10524;48.132;8.518;2023-01-13T13:30:28;5.90;99.90
20726;DHT22;10524;48.132;8.518;2023-01-13T13:36:11;5.70;99.90
20726;DHT22;10524;48.132;8.518;2023-01-13T13:38:51;5.50;99.90
20726;DHT22;10524;48.132;8.518;2023-01-13T13:41:42;5.50;99.90
20726;DHT22;10524;48.132;8.518;2023-01-13T13:44:42;5.60;99.90
20726;DHT22;10524;48.132;8.518;2023-01-13T13:47:36;5.80;99.90
20726;DHT22;10524;48.132;8.518;2023-01-13T13:50:13;5.90;99.90
20726;DHT22;10524;48.132;8.518;2023-01-13T13:52:48;5.90;99.90
20726;DHT22;10524;48.132;8.518;2023-01-13T13:55:21;6.10;99.90
20726;DHT22;10524;48.132;8.518;2023-01-13T13:57:52;6.20;99.90
20726;DHT22;10524;48.132;8.518;2023-01-13T14:00:19;6.10;99.90
20726;DHT22;10524;48.132;8.518;2023-01-13T14:05:26;5.90;99.90
20726;DHT22;10524;48.132;8.518;2023-01-13T14:10:38;6.00;99.90
20726;DHT22;10524;48.132;8.518;2023-01-13T14:13:19;6.10;99.90
20726;DHT22;10524;48.132;8.518;2023-01-13T14:15:47;6.10;99.90
20726;DHT22;10524;48.132;8.518;2023-01-13T14:18:17;6.20;99.90
20726;DHT22;10524;48.132;8.518;2023-01-13T14:23:28;6.10;99.90
20726;DHT22;10524;48.132;8.518;2023-01-13T14:25:54;6.00;99.90
20726;DHT22;10524;48.132;8.518;2023-01-13T14:28:39;6.00;99.90
20726;DHT22;10524;48.132;8.518;2023-01-13T14:31:07;5.90;99.90
20726;DHT22;10524;48.132;8.518;2023-01-13T14:33:42;5.90;99.90
20726;DHT22;10524;48.132;8.518;2023-01-13T14:41:29;5.70;99.90
20726;DHT22;10524;48.132;8.518;2023-01-13T14:43:59;5.60;99.90
20726;DHT22;10524;48.132;8.518;2023-01-13T14:46:46;5.70;99.90
20726;DHT22;10524;48.132;8.518;2023-01-13T14:52:15;5.90;99.90
20726;DHT22;10524;48.132;8.518;2023-01-13T14:54:52;5.80;99.90
20726;DHT22;10524;48.132;8.518;2023-01-13T14:57:26;5.80;99.90
20726;DHT22;10524;48.132;8.518;2023-01-13T15:00:31;5.60;99.90
20726;DHT22;10524;48.132;8.518;2023-01-13T15:10:52;5.20;99.90
20726;DHT22;10524;48.132;8.518;2023-01-13T15:13:46;5.20;99.90
20726;DHT22;10524;48.132;8.518;2023-01-13T15:16:21;5.20;99.90
20726;DHT22;10524;48.132;8.518;2023-01-13T15:18:47;5.10;99.90
20726;DHT22;10524;48.132;8.518;2023-01-13T15:21:13;5.00;99.90
20726;DHT22;10524;48.132;8.518;2023-01-13T15:23:40;4.90;99.90
20726;DHT22;10524;48.132;8.518;2023-01-13T15:26:28;4.90;99.90
20726;DHT22;10524;48.132;8.518;2023-01-13T15:28:56;4.90;99.90
20726;DHT22;10524;48.132;8.518;2023-01-13T15:31:23;4.90;99.90
20726;DHT22;10524;48.132;8.518;2023-01-13T15:33:49;4.80;99.90
20726;DHT22;10524;48.132;8.518;2023-01-13T15:36:28;4.80;99.90
20726;DHT22;10524;48.132;8.518;2023-01-13T15:38:55;4.50;99.90
20726;DHT22;10524;48.132;8.518;2023-01-13T15:41:22;4.30;99.90
20726;DHT22;10524;48.132;8.518;2023-01-13T15:44:11;4.20;99.90
20726;DHT22;10524;48.132;8.518;2023-01-13T15:46:56;4.10;99.90
20726;DHT22;10524;48.132;8.518;2023-01-13T15:49:43;4.00;99.90
20726;DHT22;10524;48.132;8.518;2023-01-13T15:52:17;4.10;99.90
20726;DHT22;10524;48.132;8.518;2023-01-13T15:54:43;3.90;99.90
20726;DHT22;10524;48.132;8.518;2023-01-13T15:57:29;3.80;99.90
20726;DHT22;10524;48.132;8.518;2023-01-13T15:59:57;3.80;99.90
20726;DHT22;10524;48.132;8.518;2023-01-13T16:02:25;3.70;99.90
20726;DHT22;10524;48.132;8.518;2023-01-13T16:04:51;3.70;99.90
20726;DHT22;10524;48.132;8.518;2023-01-13T16:07:19;3.60;99.90
20726;DHT22;10524;48.132;8.518;2023-01-13T16:09:45;3.40;99.90
20726;DHT22;10524;48.132;8.518;2023-01-13T16:12:12;3.10;99.90
20726;DHT22;10524;48.132;8.518;2023-01-13T16:14:38;3.20;99.90
20726;DHT22;10524;48.132;8.518;2023-01-13T16:17:16;3.40;99.90
20726;DHT22;10524;48.132;8.518;2023-01-13T16:19:43;3.40;99.90
20726;DHT22;10524;48.132;8.518;2023-01-13T16:22:10;3.40;99.90
20726;DHT22;10524;48.132;8.518;2023-01-13T16:24:37;3.30;99.90
20726;DHT22;10524;48.132;8.518;2023-01-13T16:27:13;3.40;99.90
20726;DHT22;10524;48.132;8.518;2023-01-13T16:29:39;3.60;99.90
20726;DHT22;10524;48.132;8.518;2023-01-13T16:32:05;3.80;99.90
20726;DHT22;10524;48.132;8.518;2023-01-13T16:34:31;4.00;99.90
20726;DHT22;10524;48.132;8.518;2023-01-13T16:36:56;4.10;99.90
20726;DHT22;10524;48.132;8.518;2023-01-13T16:39:22;4.30;99.90
20726;DHT22;10524;48.132;8.518;2023-01-13T16:41:49;4.40;99.90
20726;DHT22;10524;48.132;8.518;2023-01-13T16:44:14;4.50;99.90
20726;DHT22;10524;48.132;8.518;2023-01-13T16:46:40;4.60;99.90
20726;DHT22;10524;48.132;8.518;2023-01-13T16:49:09;4.60;99.90
20726;DHT22;10524;48.132;8.518;2023-01-13T16:51:38;4.70;99.90
20726;DHT22;10524;48.132;8.518;2023-01-13T16:54:04;4.70;99.90
20726;DHT22;10524;48.132;8.518;2023-01-13T16:56:31;4.80;99.90
20726;DHT22;10524;48.132;8.518;2023-01-13T16:59:03;4.80;99.90
20726;DHT22;10524;48.132;8.518;2023-01-13T17:01:31;4.70;99.90
20726;DHT22;10524;48.132;8.518;2023-01-13T17:03:57;4.70;99.90
20726;DHT22;10524;48.132;8.518;2023-01-13T17:06:31;4.60;99.90
20726;DHT22;10524;48.132;8.518;2023-01-13T17:09:05;4.60;99.90
20726;DHT22;10524;48.132;8.518;2023-01-13T17:11:31;4.60;99.90
20726;DHT22;10524;48.132;8.518;2023-01-13T17:13:57;4.60;99.90
20726;DHT22;10524;48.132;8.518;2023-01-13T17:16:22;4.70;99.90
20726;DHT22;10524;48.132;8.518;2023-01-13T17:18:50;4.70;99.90
20726;DHT22;10524;48.132;8.518;2023-01-13T17:21:16;4.70;99.90
20726;DHT22;10524;48.132;8.518;2023-01-13T17:23:43;4.70;99.90
20726;DHT22;10524;48.132;8.518;2023-01-13T17:26:30;4.60;99.90
20726;DHT22;10524;48.132;8.518;2023-01-13T17:28:58;4.50;99.90
20726;DHT22;10524;48.132;8.518;2023-01-13T17:31:24;4.40;99.90
20726;DHT22;10524;48.132;8.518;2023-01-13T17:33:50;4.40;99.90
20726;DHT22;10524;48.132;8.518;2023-01-13T17:36:16;4.30;99.90
20726;DHT22;10524;48.132;8.518;2023-01-13T17:38:41;4.20;99.90
20726;DHT22;10524;48.132;8.518;2023-01-13T17:41:07;4.20;99.90
20726;DHT22;10524;48.132;8.518;2023-01-13T17:43:33;4.10;99.90
20726;DHT22;10524;48.132;8.518;2023-01-13T17:45:58;4.10;99.90
20726;DHT22;10524;48.132;8.518;2023-01-13T17:48:24;4.10;99.90
20726;DHT22;10524;48.132;8.518;2023-01-13T17:50:50;4.00;99.90
20726;DHT22;10524;48.132;8.518;2023-01-13T17:53:17;3.90;99.90
20726;DHT22;10524;48.132;8.518;2023-01-13T17:55:50;3.70;99.90
20726;DHT22;10524;48.132;8.518;2023-01-13T17:58:16;3.50;99.90
20726;DHT22;10524;48.132;8.518;2023-01-13T18:00:42;3.40;99.90
20726;DHT22;10524;48.132;8.518;2023-01-13T18:03:09;3.10;99.90
20726;DHT22;10524;48.132;8.518;2023-01-13T18:05:36;2.80;99.90
20726;DHT22;10524;48.132;8.518;2023-01-13T18:08:01;2.60;99.90
20726;DHT22;10524;48.132;8.518;2023-01-13T18:10:27;2.40;99.90
20726;DHT22;10524;48.132;8.518;2023-01-13T18:12:53;2.30;99.90
20726;DHT22;10524;48.132;8.518;2023-01-13T18:15:18;2.20;99.90
20726;DHT22;10524;48.132;8.518;2023-01-13T18:17:44;2.10;99.90
20726;DHT22;10524;48.132;8.518;2023-01-13T18:20:14;2.10;99.90
20726;DHT22;10524;48.132;8.518;2023-01-13T18:22:58;1.90;99.90
20726;DHT22;10524;48.132;8.518;2023-01-13T18:25:42;1.60;99.90
20726;DHT22;10524;48.132;8.518;2023-01-13T18:28:26;1.30;99.90